Latest Coastal Weather Observations for Sydney Airport

IDN60701

Issued at 3:55 am EST Thursday 24 April 2014 (issued every 10 minutes, with the page automatically refreshed every 10 minutes)

About coastal observations | Map of coastal stations | Coastal observations for NSW | Marine services | Other Formats
Station Details ID: 066037 Name: SYDNEY AIRPORT AMO Lat: -33.95 Lon: 151.17 Height: 6.0 m
Data from the previous 72 hours. | See also: Recent months at Sydney Airport
Date/Time
EST
Temp

°C
Wind Pressure Rain
since 9am
mm
Weather Cloud Vis
km
Sea
Height
m
Swell
Dir
 
Speed
knots
Gust
knots
hPa Trend Height
m
Period
s
Dir
24/03:30am 15.2 NNW 6 7 1012.9 - 0.0 - - 10 - - - -
24/03:00am 15.0 NW 6 7 1013.1 F 0.0 Fine Mostly clear 30 - - - -
24/02:30am 15.4 NW 7 8 1013.4 - 0.0 - - 10 - - - -
24/02:00am 15.9 NW 7 8 1013.8 - 0.0 - - 10 - - - -
24/01:30am 16.2 WNW 7 8 1014.0 - 0.0 - - 10 - - - -
24/01:00am 17.4 NW 7 7 1014.1 - 0.0 - - 10 - - - -
24/12:30am 17.6 NW 6 8 1014.3 - 0.0 - - 10 - - - -
24/12:00am 17.7 NNW 6 7 1014.5 F 0.0 Fine Mostly clear 40 - - - -
 
Date/Time
EST
Temp

°C
Wind Pressure Rain
since 9am
mm
Weather Cloud Vis
km
Sea
Height
m
Swell
Dir
 
Speed
knots
Gust
knots
hPa Trend Height
m
Period
s
Dir
23/11:30pm 18.2 WNW 8 9 1014.8 - 0.0 - - 10 - - - -
23/11:00pm 18.7 NNW 7 8 1014.7 - 0.0 - - 10 - - - -
23/10:30pm 18.9 NNW 5 6 1015.0 - 0.0 - - 10 - - - -
23/10:00pm 18.8 N 4 5 1015.2 - 0.0 - - 10 - - - -
23/09:30pm 19.0 N 3 4 1015.2 - 0.0 - - 10 - - - -
23/09:00pm 19.6 NNE 1 3 1015.3 F 0.0 Fine Clear 30 - - - -
23/08:30pm 19.8 NW 1 3 1015.6 - 0.0 - - 10 - - - -
23/08:00pm 19.7 N 2 3 1015.7 - 0.0 - - 10 - - - -
23/07:30pm 21.6 N 4 4 1015.6 - 0.0 - - 10 - - - -
23/07:00pm 21.4 NNE 4 5 1015.5 - 0.0 - - 10 - - - -
23/06:30pm 21.9 N 5 7 1015.4 - 0.0 - - 10 - - - -
23/06:00pm 21.1 NNE 7 9 1014.9 F 0.0 Fine Mostly clear 40 - - - -
23/05:30pm 21.7 NE 8 9 1014.8 - 0.0 - - 10 - - - -
23/05:00pm 21.9 ENE 7 8 1014.7 - 0.0 - - 10 - - - -
23/04:30pm 22.4 ENE 8 9 1014.7 - 0.0 - - 10 - - - -
23/04:00pm 23.2 E 9 10 1014.8 - 0.0 - - 10 - - - -
23/03:30pm 23.6 SE 7 9 1014.7 - 0.0 - - 10 - - - -
23/03:00pm 23.3 SE 6 8 1014.8 R 0.0 Fine Partly cloudy 25 - - - -
23/02:30pm 23.8 ESE 7 9 1014.8 - 0.0 - - 10 - - - -
23/02:00pm 23.4 SSE 7 9 1014.9 - 0.0 - - 10 - - - -
23/01:30pm 23.9 SSE 6 7 1015.0 - 0.0 - - 10 - - - -
23/01:00pm 22.4 SSE 6 7 1015.4 - 0.0 - - 10 - - - -
23/12:30pm 22.3 ESE 4 5 1015.8 - 0.0 - - 10 - - - -
23/12:00pm 22.4 ESE 1 5 1016.1 F 0.0 Fine Mostly cloudy 25 - - - -
23/11:30am 23.5 WSW 5 7 1016.4 - 0.0 - - 10 - - - -
23/11:00am 22.6 W 7 9 1016.8 - 0.0 - - 10 - - - -
23/10:30am 23.3 WNW 9 14 1017.0 - 0.0 - - 10 - - - -
23/10:00am 21.0 NW 9 12 1017.1 - 0.0 - - 10 - - - -
23/09:30am 19.9 NW 7 11 1017.5 - 0.0 - - 10 - - - -
23/09:00am 19.1 NW 8 11 1017.6 F 0.0 Fine Mostly cloudy 25 - - - -
23/08:30am 18.4 NW 9 11 1017.7 - 0.0 - - 10 - - - -
23/08:00am 17.1 NW 8 10 1017.6 - 0.0 - - 10 - - - -
23/07:30am 15.5 NNW 8 10 1017.4 - 0.0 - - 10 - - - -
23/07:00am 14.9 NNW 8 10 1017.2 - 0.0 - - 10 - - - -
23/06:30am 14.1 NW 8 10 1017.0 - 0.0 - - 10 - - - -
23/06:00am 13.8 NW 7 9 1016.8 F 0.0 Fine Partly cloudy 30 - - - -
23/05:30am 14.1 NNW 8 9 1016.6 - 0.0 - - 10 - - - -
23/05:00am 14.1 NNW 7 9 1016.5 - 0.0 - - 10 - - - -
23/04:30am 14.4 NW 7 9 1016.5 - 0.0 - - 10 - - - -
23/04:00am 14.2 NNW 7 9 1016.3 - 0.0 - - 10 - - - -
23/03:30am 14.3 NNW 8 8 1016.2 - 0.0 - - 10 - - - -
23/03:00am 14.2 NNW 8 9 1016.3 R 0.0 Fine Mostly clear 30 - - - -
23/02:30am 14.6 NNW 6 8 1016.3 - 0.0 - - 10 - - - -
23/02:00am 14.8 NNW 6 7 1016.4 - 0.0 - - 10 - - - -
23/01:30am 16.0 NNW 6 7 1016.5 - 0.0 - - 10 - - - -
23/01:00am 15.7 NW 6 7 1016.5 - 0.0 - - 10 - - - -
23/12:30am 16.0 WNW 7 8 1016.4 - 0.0 - - 10 - - - -
23/12:00am 17.3 W 7 9 1016.5 R 0.0 Fine Mostly clear 30 - - - -
 
Date/Time
EST
Temp

°C
Wind Pressure Rain
since 9am
mm
Weather Cloud Vis
km
Sea
Height
m
Swell
Dir
 
Speed
knots
Gust
knots
hPa Trend Height
m
Period
s
Dir
22/11:30pm 17.7 W 7 7 1016.6 - 0.0 - - 10 - - - -
22/11:00pm 17.7 NW 7 9 1016.5 - 0.0 - - 10 - - - -
22/10:30pm 19.1 NW 7 9 1016.7 - 0.0 - - 10 - - - -
22/10:00pm 18.6 W 8 13 1016.6 - 0.0 - - 10 - - - -
22/09:30pm 19.5 NW 8 11 1016.6 - 0.0 - - 10 - - - -
22/09:00pm 19.6 NW 7 8 1016.4 F 0.0 Fine Partly cloudy 25 - - - -
22/08:30pm 20.6 NW 8 10 1016.2 - 0.0 - - 10 - - - -
22/08:00pm 21.0 NNW 9 10 1016.2 - 0.0 - - 10 - - - -
22/07:33pm 21.4 NNW 7 9 1015.9 - 0.0 - - 10 - - - -
22/07:30pm 21.6 NNW 7 8 1015.9 - 0.0 - - 10 - - - -
22/07:00pm 22.6 NNW 6 8 1015.7 - 0.0 - - 10 - - - -
22/06:30pm 23.3 NNW 6 7 1015.5 - 0.0 - - 10 - - - -
22/06:00pm 23.4 NNW 8 9 1015.4 F 0.0 Fine Mostly cloudy 30 - - - -
22/05:30pm 23.8 NNW 8 9 1015.2 - 0.0 - - 10 - - - -
22/05:00pm 24.1 NNW 7 8 1015.1 - 0.0 - - 10 - - - -
22/04:30pm 24.7 NW 7 8 1014.9 - 0.0 - - 10 - - - -
22/04:00pm 24.8 NW 5 7 1014.7 - 0.0 - - 10 - - - -
22/03:30pm 24.3 NNW 6 8 1014.8 - 0.0 - - 10 - - - -
22/03:00pm 24.7 NW 6 8 1014.8 F 0.0 Fine Mostly cloudy 30 - - - -
22/02:30pm 24.2 NW 7 8 1014.8 - 0.0 - - 10 - - - -
22/02:00pm 24.4 NW 7 9 1015.1 - 0.0 - - 10 - - - -
22/01:30pm 23.9 NW 6 9 1015.2 - 0.0 - - 10 - - - -
22/01:00pm 23.3 NW 7 9 1015.5 - 0.0 - - 10 - - - -
22/12:30pm 23.2 NW 8 12 1016.0 - 0.0 - - 10 - - - -
22/12:00pm 22.4 NW 10 13 1016.5 F 0.0 Fine Mostly cloudy 30 - - - -
22/11:30am 21.8 NW 9 13 1017.1 - 0.0 - - 10 - - - -
22/11:00am 21.5 NW 7 9 1017.4 - 0.0 - - 10 - - - -
22/10:30am 20.3 NW 6 8 1017.8 - 0.0 - - 10 - - - -
22/10:00am 19.1 WNW 6 9 1018.1 - 0.0 - - 10 - - - -
22/09:30am 18.2 WNW 9 11 1018.7 - 0.0 - - 10 - - - -
22/09:00am 17.1 NW 8 11 1018.7 F 0.0 Fine Mostly cloudy 25 - - - -
22/08:30am 16.4 NW 7 8 1018.6 - 0.0 - - 10 - - - -
22/08:00am 15.6 NNW 7 9 1018.6 - 0.0 - - 10 - - - -
22/07:30am 15.0 NNW 7 9 1018.8 - 0.0 - - 10 - - - -
22/07:00am 13.5 NW 7 10 1018.9 - 0.0 - - 10 - - - -
22/06:30am 13.0 NW 7 9 1018.7 - 0.0 - - 10 - - - -
22/06:00am 13.0 NW 9 11 1018.7 F 0.0 Fine Partly cloudy 25 - - - -
22/05:30am 13.4 NW 8 10 1018.7 - 0.0 - - 10 - - - -
22/05:00am 13.5 NW 8 9 1018.6 - 0.0 - - 10 - - - -
22/04:30am 13.6 NW 7 8 1018.7 - 0.0 - - 10 - - - -
22/04:00am 13.2 NW 7 9 1018.7 - 0.0 - - 10 - - - -
22/03:30am 13.1 NNW 7 8 1018.5 - 0.0 - - 10 - - - -
22/03:00am 13.6 NW 8 10 1018.7 F 0.0 Fine Clear 25 - - - -
22/02:30am 13.7 NW 8 9 1018.9 - 0.0 - - 10 - - - -
22/02:00am 14.2 NW 7 9 1019.1 - 0.0 - - 10 - - - -
22/01:30am 14.7 NW 8 10 1019.4 - 0.0 - - 10 - - - -
22/01:00am 15.0 N 7 8 1019.7 - 0.0 - - 10 - - - -
22/12:30am 15.8 N 6 7 1019.8 - 0.0 - - 10 - - - -
22/12:00am 16.2 NNW 6 7 1019.8 F 0.0 Fine Mostly cloudy 25 - - - -
 
Date/Time
EST
Temp

°C
Wind Pressure Rain
since 9am
mm
Weather Cloud Vis
km
Sea
Height
m
Swell
Dir
 
Speed
knots
Gust
knots
hPa Trend Height
m
Period
s
Dir
21/11:30pm 16.7 N 6 7 1020.0 - 0.0 - - 10 - - - -
21/11:00pm 17.6 NNW 5 5 1020.1 - 0.0 - - 10 - - - -
21/10:30pm 17.7 NW 4 6 1020.0 - 0.0 - - 10 - - - -
21/10:00pm 17.6 NW 5 7 1020.2 - 0.0 - - 10 - - - -
21/09:30pm 18.2 NW 7 11 1020.2 - 0.0 - - 10 - - - -
21/09:00pm 18.3 WNW 6 7 1020.2 F 0.0 Fine Partly cloudy 30 - - - -
21/08:30pm 18.9 NW 5 8 1020.1 - 0.0 - - 10 - - - -
21/08:00pm 18.9 NW 5 6 1020.0 - 0.0 - - 10 - - - -
21/07:30pm 19.3 S 1 5 1020.0 - 0.0 - - 10 - - - -
21/07:00pm 18.8 CALM 0 0 1019.7 - 0.0 - - 10 - - - -
21/06:30pm 19.0 S 3 5 1019.4 - 0.0 - - 10 - - - -
21/06:00pm 19.3 S 3 4 1019.2 F 0.0 Fine Mostly cloudy 40 - - - -
21/05:30pm 19.6 SE 5 6 1018.8 - 0.0 - - 10 - - - -
21/05:00pm 20.1 SE 7 9 1018.7 - 0.0 - - 10 - - - -
21/04:30pm 20.3 ESE 7 8 1018.7 - 0.0 - - 10 - - - -
21/04:00pm 21.0 ESE 8 10 1018.7 - 0.0 - Mostly clear 10 - - - -
21/03:30pm 21.6 SE 8 9 1018.5 - 0.0 - - 10 - - - -
21/03:00pm 22.0 SE 9 10 1018.5 R 0.0 Fine Partly cloudy 30 - - - -
21/02:30pm 22.3 ESE 9 12 1018.4 - 0.0 - - 10 - - - -
21/02:00pm 21.6 WSW 5 6 1018.4 - 0.0 - - 10 - - - -
21/01:30pm 22.5 SSE 2 5 1018.7 - 0.0 - - 10 - - - -
21/01:00pm 22.6 NW 3 5 1018.9 - 0.0 - - 10 - - - -
21/12:30pm 21.6 W 5 7 1019.3 - 0.0 - - 10 - - - -
21/12:00pm 22.9 WNW 6 8 1019.7 F 0.0 Haze Mostly clear 20 - - - -
21/11:30am 22.6 WNW 7 10 1020.2 - 0.0 - Mostly clear 10 - - - -
21/11:00am 21.5 WNW 7 9 1020.6 - 0.0 - Mostly clear 10 - - - -
21/10:30am 19.5 WNW 8 11 1020.7 - 0.0 - Mostly clear 10 - - - -
21/10:00am 19.0 WNW 9 14 1020.8 - 0.0 - Mostly clear 10 - - - -
21/09:30am 17.7 WNW 8 10 1021.2 - 0.0 - Mostly clear 10 - - - -
21/09:00am 16.6 WNW 9 10 1021.1 R 0.0 Fine Mostly clear 30 - - - -
21/08:30am 15.4 WNW 11 15 1021.0 - 0.0 - Mostly clear 10 - - - -
21/08:00am 14.9 WNW 11 15 1020.9 - 0.0 - Mostly clear 10 - - - -
21/07:30am 14.3 WNW 11 14 1020.6 - 0.0 - Mostly clear 10 - - - -
21/07:00am 13.5 W 9 14 1020.2 - 0.0 - Mostly clear 10 - - - -
21/06:30am 12.9 WNW 11 14 1019.9 - 0.0 - Mostly clear 10 - - - -
21/06:00am 12.8 WNW 12 15 1019.6 R 0.0 Fine Mostly clear 40 - - - -
21/05:30am 12.8 WNW 10 13 1019.3 - 0.0 - Mostly clear 10 - - - -
21/05:00am 12.9 WNW 8 10 1019.1 - 0.0 - Mostly clear 10 - - - -
21/04:30am 13.3 WNW 8 8 1018.8 - 0.0 - Mostly clear 10 - - - -
21/04:00am 13.6 NW 5 7 1018.5 - 0.0 - Mostly clear 10 - - - -

Other Formats:

Comma delimited format used in spreadsheet applications
http://www.bom.gov.au/fwo/IDN60701/IDN60701.94767.axf

JavaScript Object Notation format (JSON) in row-major order
http://www.bom.gov.au/fwo/IDN60701/IDN60701.94767.json